Terminal Aerodrome Forecast
Issued by NWS Cleveland, OH

Home | Current Version | Previous Version | Graphics & Text | Print | Product List | Glossary On
Versions: 1 2 3 4 5 6 7 8 9 10 11 12 13 14 15 16 17 18 19 20 21 22 23 24 25 26 27
000
FTUS41 KCLE 251007 AAB
TAFCLE
TAF AMD
KCLE 251007Z 2510/2612 14010KT P6SM VCSH BKN050 OVC150
     FM251400 13012G20KT P6SM BKN040
     FM260100 14008KT P6SM BKN050=

USA.gov is the U.S. government's official web portal to all federal, state and local government web resources and services.